createdAt,value
2018-12-18T00:01:01.020Z,85.13
2018-12-18T00:04:04.390Z,85.09
2018-12-18T00:07:07.649Z,85.61
2018-12-18T00:10:10.946Z,86.09
2018-12-18T00:13:14.213Z,85.96
2018-12-18T00:16:17.578Z,86.11
2018-12-18T00:19:20.796Z,86.33
2018-12-18T00:22:24.047Z,86.36
2018-12-18T00:25:27.317Z,86.09
2018-12-18T00:28:30.540Z,86.20
2018-12-18T00:31:35.056Z,86.11
2018-12-18T00:34:38.308Z,86.68
2018-12-18T00:37:41.541Z,87.15
2018-12-18T00:40:44.797Z,85.99
2018-12-18T00:43:48.062Z,85.66
2018-12-18T00:46:51.297Z,85.75
2018-12-18T00:49:54.524Z,85.83
2018-12-18T00:52:57.749Z,85.85
2018-12-18T00:56:00.985Z,86.16
2018-12-18T00:59:04.271Z,86.21
2018-12-18T01:02:07.534Z,86.08
2018-12-18T01:05:10.807Z,86.10
2018-12-18T01:08:14.121Z,86.10
2018-12-18T01:11:17.785Z,86.12
2018-12-18T01:14:21.047Z,85.94
2018-12-18T01:17:24.356Z,86.12
2018-12-18T01:20:27.587Z,85.92
2018-12-18T01:23:31.037Z,85.60
2018-12-18T01:26:34.238Z,85.38
2018-12-18T01:29:37.505Z,86.07
2018-12-18T01:35:50.264Z,84.75
2018-12-18T01:38:53.489Z,84.66
2018-12-18T01:41:56.755Z,84.35
2018-12-18T01:44:59.985Z,83.40
2018-12-18T01:48:03.209Z,83.82
2018-12-18T01:51:06.526Z,83.31
2018-12-18T01:54:09.752Z,83.83
2018-12-18T01:57:12.985Z,84.25
2018-12-18T02:00:16.304Z,84.29
2018-12-18T02:03:19.637Z,84.13
2018-12-18T02:06:22.958Z,84.34
2018-12-18T02:09:26.188Z,84.97
2018-12-18T02:12:29.413Z,84.13
2018-12-18T02:15:32.649Z,84.85
2018-12-18T02:18:35.880Z,83.87
2018-12-18T02:21:39.108Z,84.18
2018-12-18T02:24:42.341Z,83.86
2018-12-18T02:27:45.567Z,83.48
2018-12-18T02:30:48.789Z,84.01
2018-12-18T02:33:52.022Z,82.07
2018-12-18T02:36:55.245Z,83.00
2018-12-18T02:39:58.473Z,83.50
2018-12-18T02:43:01.775Z,83.45
2018-12-18T02:46:05.080Z,83.49
2018-12-18T02:49:08.311Z,84.84
2018-12-18T02:52:11.569Z,84.64
2018-12-18T02:55:15.764Z,85.55
2018-12-18T02:58:19.024Z,84.03
2018-12-18T03:01:22.260Z,83.94
2018-12-18T03:04:25.584Z,84.01
2018-12-18T03:07:28.902Z,84.06
2018-12-18T03:10:32.144Z,83.77
2018-12-18T03:13:35.364Z,82.83
2018-12-18T03:16:38.660Z,83.20
2018-12-18T03:19:41.868Z,82.56
2018-12-18T03:22:45.106Z,83.23
2018-12-18T03:25:48.333Z,83.69
2018-12-18T03:28:52.116Z,84.09
2018-12-18T03:31:56.183Z,84.28
2018-12-18T03:34:59.418Z,85.76
2018-12-18T03:38:02.663Z,86.51
2018-12-18T03:41:06.052Z,85.95
2018-12-18T03:44:09.284Z,84.61
2018-12-18T03:47:12.514Z,83.54
2018-12-18T03:50:15.802Z,83.09
2018-12-18T03:53:19.028Z,83.48
2018-12-18T03:56:22.258Z,82.92
2018-12-18T03:59:25.490Z,83.28
2018-12-18T04:02:28.718Z,83.72
2018-12-18T04:05:31.970Z,83.25
2018-12-18T04:08:35.293Z,83.86
2018-12-18T04:11:40.466Z,83.04
2018-12-18T04:14:43.695Z,83.87
2018-12-18T04:17:46.917Z,83.92
2018-12-18T04:20:50.147Z,83.84
2018-12-18T04:23:53.389Z,85.70
2018-12-18T04:26:56.732Z,85.44
2018-12-18T04:29:59.964Z,85.04
2018-12-18T04:33:03.197Z,84.29
2018-12-18T04:36:06.434Z,84.29
2018-12-18T04:39:09.652Z,83.59
2018-12-18T04:42:12.893Z,82.82
2018-12-18T04:45:16.123Z,83.50
2018-12-18T04:48:19.362Z,82.85
2018-12-18T04:51:22.746Z,83.63
2018-12-18T04:54:26.054Z,83.38
2018-12-18T04:57:29.371Z,83.07
2018-12-18T05:00:32.630Z,81.56
2018-12-18T05:03:35.897Z,82.66
2018-12-18T05:06:39.293Z,82.80
2018-12-18T05:09:42.524Z,82.52
2018-12-18T05:12:45.763Z,82.67
2018-12-18T05:15:49.073Z,82.80
2018-12-18T05:18:52.301Z,81.23
2018-12-18T05:21:55.571Z,82.58
2018-12-18T05:24:58.785Z,82.41
2018-12-18T05:28:02.014Z,83.13
2018-12-18T05:31:05.246Z,82.17
2018-12-18T05:34:08.568Z,82.41
2018-12-18T05:37:11.784Z,82.18
2018-12-18T05:40:15.017Z,82.42
2018-12-18T05:43:18.271Z,83.15
2018-12-18T05:46:21.553Z,82.85
2018-12-18T05:49:24.763Z,83.69
2018-12-18T05:52:28.078Z,83.31
2018-12-18T05:55:31.307Z,83.16
2018-12-18T05:58:34.538Z,83.82
2018-12-18T06:01:37.854Z,82.77
2018-12-18T06:04:41.128Z,83.43
2018-12-18T06:07:44.359Z,83.75
2018-12-18T06:10:47.585Z,84.16
2018-12-18T06:13:50.849Z,83.69
2018-12-18T06:16:54.116Z,83.36
2018-12-18T06:19:57.332Z,82.99
2018-12-18T06:23:00.605Z,83.25
2018-12-18T06:26:03.843Z,83.93
2018-12-18T06:29:07.065Z,84.06
2018-12-18T06:32:10.320Z,82.51
2018-12-18T06:35:13.658Z,82.37
2018-12-18T06:38:16.869Z,82.91
2018-12-18T06:41:20.186Z,83.09
2018-12-18T06:44:23.392Z,82.89
2018-12-18T06:47:26.675Z,82.65
2018-12-18T06:50:29.886Z,82.60
2018-12-18T06:53:33.101Z,82.27
2018-12-18T06:56:36.481Z,82.78
2018-12-18T06:59:39.717Z,82.66
2018-12-18T07:02:42.961Z,83.95
2018-12-18T07:05:46.212Z,82.89
2018-12-18T07:08:49.474Z,82.58
2018-12-18T07:11:52.738Z,82.85
2018-12-18T07:14:55.965Z,83.38
2018-12-18T07:17:59.194Z,82.89
2018-12-18T07:21:02.442Z,84.01
2018-12-18T07:24:05.727Z,84.66
2018-12-18T07:27:08.974Z,83.42
2018-12-18T07:30:12.255Z,84.21
2018-12-18T07:33:15.514Z,84.56
2018-12-18T07:36:18.752Z,84.15
2018-12-18T07:39:22.000Z,84.15
2018-12-18T07:42:25.261Z,83.92
2018-12-18T07:45:28.496Z,84.06
2018-12-18T07:48:31.729Z,84.11
2018-12-18T07:51:35.010Z,84.57
2018-12-18T07:54:38.224Z,84.72
2018-12-18T07:57:41.488Z,84.60
2018-12-18T08:00:44.792Z,84.77
2018-12-18T08:03:48.092Z,84.96
2018-12-18T08:06:51.350Z,85.09
2018-12-18T08:09:54.586Z,85.88
2018-12-18T08:12:57.892Z,85.62
2018-12-18T08:16:01.211Z,85.19
2018-12-18T08:19:04.503Z,84.90
2018-12-18T08:22:07.734Z,84.67
2018-12-18T08:25:11.069Z,84.89
2018-12-18T08:28:14.304Z,85.91
2018-12-18T08:31:17.541Z,85.34
2018-12-18T08:34:20.778Z,85.85
2018-12-18T08:37:24.004Z,86.21
2018-12-18T08:40:27.229Z,86.46
2018-12-18T08:43:30.465Z,87.00
2018-12-18T08:46:33.722Z,86.61
2018-12-18T08:49:36.953Z,87.39
2018-12-18T08:52:40.276Z,87.52
2018-12-18T08:55:43.934Z,87.50
2018-12-18T08:58:47.244Z,87.57
2018-12-18T09:01:50.525Z,87.25
2018-12-18T09:04:53.753Z,87.31
2018-12-18T09:07:57.001Z,86.92
2018-12-18T09:11:00.245Z,86.42
2018-12-18T09:14:03.517Z,86.26
2018-12-18T09:17:07.781Z,86.94
2018-12-18T09:20:11.021Z,87.77
2018-12-18T09:23:14.315Z,86.60
2018-12-18T09:26:17.548Z,86.64
2018-12-18T09:29:20.872Z,84.01
2018-12-18T09:32:24.281Z,82.64
2018-12-18T09:35:27.609Z,80.84
2018-12-18T09:38:36.339Z,79.46
2018-12-18T09:41:39.890Z,76.73
2018-12-18T09:44:43.259Z,79.32
2018-12-18T09:47:46.509Z,79.85
2018-12-18T09:50:49.776Z,79.78
2018-12-18T09:53:53.005Z,80.43
2018-12-18T10:00:22.669Z,81.20
2018-12-18T10:03:26.098Z,82.21
2018-12-18T10:06:29.436Z,80.86
2018-12-18T10:09:32.705Z,82.09
2018-12-18T10:12:41.516Z,81.22
2018-12-18T10:15:44.772Z,82.17
2018-12-18T10:18:48.941Z,82.64
2018-12-18T10:21:52.380Z,82.50
2018-12-18T10:24:55.645Z,81.67
2018-12-18T10:27:59.029Z,81.79
2018-12-18T10:31:02.278Z,81.04
2018-12-18T10:34:05.573Z,81.26
2018-12-18T10:37:08.862Z,80.48
2018-12-18T10:40:12.181Z,79.53
2018-12-18T10:43:15.504Z,78.82
2018-12-18T10:46:18.873Z,76.91
2018-12-18T10:49:22.117Z,74.03
2018-12-18T10:52:25.414Z,71.05
2018-12-18T10:55:28.692Z,69.92
2018-12-18T10:58:31.970Z,71.25
2018-12-18T11:01:47.685Z,74.12
2018-12-18T11:04:50.924Z,71.26
2018-12-18T11:07:54.287Z,69.63
2018-12-18T11:10:57.520Z,67.30
2018-12-18T11:14:00.814Z,68.09
2018-12-18T11:17:04.170Z,67.46
2018-12-18T11:20:07.503Z,66.55
2018-12-18T11:23:10.822Z,63.35
2018-12-18T11:26:14.086Z,60.91
2018-12-18T11:29:17.391Z,58.83
2018-12-18T11:32:20.673Z,58.51
2018-12-18T11:35:23.911Z,59.82
2018-12-18T11:38:27.202Z,59.76
2018-12-18T11:41:30.437Z,60.35
2018-12-18T11:44:33.667Z,59.52
2018-12-18T11:47:36.935Z,57.99
2018-12-18T11:50:40.206Z,55.48
2018-12-18T11:53:43.491Z,54.72
2018-12-18T11:56:46.784Z,55.73
2018-12-18T11:59:50.030Z,52.95
2018-12-18T12:02:53.416Z,51.90
2018-12-18T12:05:56.662Z,52.70
2018-12-18T12:09:00.093Z,52.75
2018-12-18T12:12:03.365Z,53.20
2018-12-18T12:15:06.824Z,52.94
2018-12-18T12:18:10.100Z,51.71
2018-12-18T12:21:13.383Z,52.40
2018-12-18T12:24:16.646Z,52.99
2018-12-18T12:27:25.672Z,54.28
2018-12-18T12:30:30.002Z,53.02
2018-12-18T12:33:33.305Z,54.78
2018-12-18T12:36:36.530Z,54.22
2018-12-18T12:39:39.820Z,55.31
2018-12-18T12:42:43.061Z,53.63
2018-12-18T12:45:46.316Z,51.40
2018-12-18T12:48:54.702Z,53.95
2018-12-18T12:51:58.013Z,54.19
2018-12-18T12:55:01.248Z,54.38
2018-12-18T12:58:04.505Z,54.79
2018-12-18T13:01:07.741Z,53.20
2018-12-18T13:04:10.975Z,54.94
2018-12-18T13:07:14.201Z,53.65
2018-12-18T13:10:17.437Z,53.10
2018-12-18T13:13:20.701Z,52.57
2018-12-18T13:16:23.932Z,52.54
2018-12-18T13:19:27.173Z,53.09
2018-12-18T13:22:30.432Z,52.95
2018-12-18T13:25:33.749Z,50.34
2018-12-18T13:28:37.000Z,49.36
2018-12-18T13:31:40.250Z,49.01
2018-12-18T13:34:43.523Z,47.89
2018-12-18T13:37:46.855Z,46.71
2018-12-18T13:40:50.080Z,46.19
2018-12-18T13:43:53.401Z,47.88
2018-12-18T13:46:56.633Z,47.38
2018-12-18T13:49:59.869Z,47.10
2018-12-18T13:53:03.093Z,45.31
2018-12-18T13:56:06.416Z,46.43
2018-12-18T13:59:09.681Z,45.45
2018-12-18T14:02:12.921Z,48.07
2018-12-18T14:05:16.191Z,48.09
2018-12-18T14:08:19.445Z,50.77
2018-12-18T14:11:22.685Z,51.83
2018-12-18T14:14:25.917Z,51.85
2018-12-18T14:17:29.172Z,52.69
2018-12-18T14:20:32.406Z,54.38
2018-12-18T14:23:35.707Z,53.81
2018-12-18T14:26:38.958Z,55.20
2018-12-18T14:29:42.183Z,55.88
2018-12-18T14:32:45.425Z,56.30
2018-12-18T14:35:48.652Z,56.61
2018-12-18T14:38:51.876Z,57.11
2018-12-18T14:41:55.141Z,56.96
2018-12-18T14:44:58.365Z,57.62
2018-12-18T14:48:01.588Z,58.04
2018-12-18T14:51:04.845Z,58.11
2018-12-18T14:54:08.072Z,59.03
2018-12-18T14:57:11.306Z,60.02
2018-12-18T15:00:14.537Z,60.26
2018-12-18T15:03:17.756Z,61.12
2018-12-18T15:06:21.077Z,61.97
2018-12-18T15:09:24.345Z,63.18
2018-12-18T15:12:27.574Z,62.83
2018-12-18T15:15:30.905Z,63.58
2018-12-18T15:18:34.184Z,63.57
2018-12-18T15:21:37.414Z,63.80
2018-12-18T15:24:40.672Z,63.81
2018-12-18T15:27:43.949Z,64.29
2018-12-18T15:30:47.202Z,65.21
2018-12-18T15:33:50.504Z,66.22
2018-12-18T15:36:53.716Z,65.92
2018-12-18T15:39:57.038Z,66.14
2018-12-18T15:43:00.287Z,66.89
2018-12-18T15:46:03.554Z,67.24
2018-12-18T15:49:06.773Z,67.89
2018-12-18T15:52:10.093Z,66.62
2018-12-18T15:55:13.383Z,65.91
2018-12-18T15:58:16.693Z,66.03
2018-12-18T16:01:19.928Z,66.15
2018-12-18T16:04:23.269Z,66.86
2018-12-18T16:07:26.488Z,67.74
2018-12-18T16:10:29.725Z,67.52
2018-12-18T16:13:32.947Z,67.27
2018-12-18T16:16:36.231Z,67.49
2018-12-18T16:19:39.552Z,67.81
2018-12-18T16:22:42.775Z,67.52
2018-12-18T16:25:46.011Z,66.96
2018-12-18T16:28:49.236Z,66.88
2018-12-18T16:31:52.462Z,66.67
2018-12-18T16:34:55.694Z,66.91
2018-12-18T16:37:58.912Z,67.14
2018-12-18T16:41:02.141Z,66.94
2018-12-18T16:44:05.389Z,67.46
2018-12-18T16:47:08.618Z,67.74
2018-12-18T16:50:11.873Z,67.91
2018-12-18T16:53:15.098Z,68.24
2018-12-18T16:56:18.358Z,68.29
2018-12-18T16:59:21.673Z,68.90
2018-12-18T17:02:24.940Z,68.82
2018-12-18T17:05:28.175Z,69.57
2018-12-18T17:08:32.220Z,69.90
2018-12-18T17:11:35.809Z,69.97
2018-12-18T17:14:39.064Z,69.38
2018-12-18T17:17:42.315Z,69.12
2018-12-18T17:20:45.545Z,69.31
2018-12-18T17:23:48.769Z,69.35
2018-12-18T17:26:52.025Z,69.22
2018-12-18T17:29:55.282Z,68.41
2018-12-18T17:32:58.497Z,67.83
2018-12-18T17:36:01.765Z,68.67
2018-12-18T17:39:07.222Z,69.31
2018-12-18T17:42:10.427Z,69.09
2018-12-18T17:45:13.690Z,69.73
2018-12-18T17:48:16.912Z,69.92
2018-12-18T17:51:20.145Z,70.01
2018-12-18T17:54:23.364Z,69.79
2018-12-18T17:57:26.592Z,69.62
2018-12-18T18:00:29.845Z,70.00
2018-12-18T18:03:33.061Z,70.48
2018-12-18T18:06:36.285Z,71.08
2018-12-18T18:09:39.513Z,71.90
2018-12-18T18:12:42.741Z,71.58
2018-12-18T18:15:46.004Z,71.34
2018-12-18T18:18:49.367Z,71.92
2018-12-18T18:21:52.589Z,71.69
2018-12-18T18:24:55.868Z,71.70
2018-12-18T18:27:59.108Z,71.66
2018-12-18T18:31:02.469Z,72.20
2018-12-18T18:34:05.752Z,72.89
2018-12-18T18:37:08.971Z,72.86
2018-12-18T18:40:12.329Z,73.48
2018-12-18T18:43:15.557Z,72.74
2018-12-18T18:46:18.878Z,72.91
2018-12-18T18:49:22.133Z,72.54
2018-12-18T18:52:25.358Z,72.95
2018-12-18T18:55:28.585Z,73.53
2018-12-18T18:58:31.815Z,73.78
2018-12-18T19:01:35.065Z,73.29
2018-12-18T19:04:38.324Z,72.90
2018-12-18T19:07:41.587Z,74.47
2018-12-18T19:10:44.837Z,75.44
2018-12-18T19:13:48.078Z,75.99
2018-12-18T19:16:51.351Z,76.27
2018-12-18T19:19:54.569Z,76.64
2018-12-18T19:22:57.817Z,76.16
2018-12-18T19:26:01.054Z,75.81
2018-12-18T19:29:04.307Z,75.62
2018-12-18T19:32:07.542Z,75.04
2018-12-18T19:35:10.845Z,74.84
2018-12-18T19:38:14.075Z,74.47
2018-12-18T19:41:17.332Z,74.38
2018-12-18T19:44:20.561Z,74.78
2018-12-18T19:47:23.820Z,74.74
2018-12-18T19:50:27.072Z,74.11
2018-12-18T19:53:30.302Z,74.49
2018-12-18T19:56:33.580Z,74.15
2018-12-18T19:59:36.870Z,74.05
2018-12-18T20:02:40.124Z,73.76
2018-12-18T20:05:43.394Z,74.16
2018-12-18T20:08:46.694Z,74.87
2018-12-18T20:11:49.948Z,75.61
2018-12-18T20:14:53.161Z,75.97
2018-12-18T20:17:56.431Z,75.91
2018-12-18T20:20:59.689Z,76.55
2018-12-18T20:24:02.941Z,76.11
2018-12-18T20:27:06.181Z,76.52
2018-12-18T20:30:09.422Z,75.86
2018-12-18T20:33:12.741Z,75.92
2018-12-18T20:36:16.020Z,75.88
2018-12-18T20:39:19.262Z,75.91
2018-12-18T20:42:22.517Z,75.65
2018-12-18T20:45:25.753Z,75.59
2018-12-18T20:48:28.984Z,75.89
2018-12-18T20:51:32.220Z,75.77
2018-12-18T20:54:35.447Z,75.69
2018-12-18T20:57:38.689Z,75.92
2018-12-18T21:00:41.915Z,75.25
2018-12-18T21:03:45.170Z,74.59
2018-12-18T21:06:48.425Z,74.71
2018-12-18T21:09:51.663Z,75.32
2018-12-18T21:16:17.905Z,75.83
2018-12-18T21:19:21.188Z,76.18
2018-12-18T21:22:24.434Z,76.53
2018-12-18T21:25:27.659Z,76.46
2018-12-18T21:28:31.040Z,76.03
2018-12-18T21:31:34.280Z,76.34
2018-12-18T21:34:37.898Z,76.95
2018-12-18T21:37:41.115Z,76.67
2018-12-18T21:40:44.403Z,76.31
2018-12-18T21:43:47.628Z,75.84
2018-12-18T21:46:50.865Z,76.31
2018-12-18T21:49:54.087Z,76.37
2018-12-18T21:52:57.368Z,76.87
2018-12-18T21:56:00.650Z,76.08
2018-12-18T21:59:03.930Z,75.75
2018-12-18T22:02:07.154Z,74.67
2018-12-18T22:05:10.380Z,75.03
2018-12-18T22:08:13.619Z,75.37
2018-12-18T22:11:16.855Z,75.47
2018-12-18T22:14:20.072Z,75.18
2018-12-18T22:17:23.301Z,75.69
2018-12-18T22:20:26.531Z,75.87
2018-12-18T22:23:29.772Z,75.85
2018-12-18T22:26:33.004Z,76.48
2018-12-18T22:29:36.230Z,76.63
2018-12-18T22:32:39.489Z,75.94
2018-12-18T22:35:42.713Z,77.36
2018-12-18T22:38:46.032Z,77.74
2018-12-18T22:41:49.305Z,77.14
2018-12-18T22:44:52.546Z,76.66
2018-12-18T22:47:55.776Z,76.27
2018-12-18T22:50:59.009Z,75.06
2018-12-18T22:54:02.286Z,75.95
2018-12-18T22:57:05.529Z,76.30
2018-12-18T23:03:31.145Z,76.38
2018-12-18T23:06:34.419Z,76.64
2018-12-18T23:09:37.641Z,76.65
2018-12-18T23:12:40.869Z,76.37
2018-12-18T23:15:44.106Z,76.69
2018-12-18T23:18:47.335Z,76.53
2018-12-18T23:21:50.557Z,77.18
2018-12-18T23:24:53.792Z,76.32
2018-12-18T23:27:57.064Z,78.33
2018-12-18T23:31:00.310Z,77.92
2018-12-18T23:34:03.562Z,77.68
2018-12-18T23:37:06.789Z,77.36
2018-12-18T23:40:10.294Z,77.40
2018-12-18T23:43:13.572Z,76.89
2018-12-18T23:46:16.796Z,76.15
2018-12-18T23:49:20.106Z,75.58
2018-12-18T23:52:23.518Z,74.75
2018-12-18T23:55:26.768Z,74.56
2018-12-18T23:58:30.016Z,74.46
